Cordova, North Carolina
Current Conditions -  °F | °C
As of 2:35 AM on Thursday 23 Oct 2014 (Local Time) from KRCZ Reporting Station
Clear Clear  
Wind Chill: 46°   Ceiling: Unl
Heat Index: 48°   Visibility: 10mi
Dew Point: 40°   Wind: 5mph
Humidity: 74%   Direction: 310°NW
Pressure: 30.05"   Gusts: NA
Location:  34.91°N, 79.82°W
Report Text: KRCZ 230635Z AUTO 31004KT 10SM CLR 09/05 A3005 RMK AO2 T00900046
Loading
Personal Weather Stations






























Interactive Weather Map
Tropical Storm Tracking
New forecast layout! Learn more

10-Day Weather Forecast

Advertisements
Track Severe Weather on mobile